sensor_id;sensor_type;location;lat;lon;timestamp;P1;durP1;ratioP1;P2;durP2;ratioP2
12970;SDS011;6550;48.650;8.774;2024-01-11T00:00:39;14.47;;;10.57;;
12970;SDS011;6550;48.650;8.774;2024-01-11T00:03:06;15.55;;;12.25;;
12970;SDS011;6550;48.650;8.774;2024-01-11T00:05:35;16.77;;;11.47;;
12970;SDS011;6550;48.650;8.774;2024-01-11T00:08:03;14.00;;;11.50;;
12970;SDS011;6550;48.650;8.774;2024-01-11T00:10:30;14.23;;;11.17;;
12970;SDS011;6550;48.650;8.774;2024-01-11T00:12:56;16.53;;;12.07;;
12970;SDS011;6550;48.650;8.774;2024-01-11T00:15:23;14.17;;;11.33;;
12970;SDS011;6550;48.650;8.774;2024-01-11T00:17:50;19.00;;;12.23;;
12970;SDS011;6550;48.650;8.774;2024-01-11T00:20:19;16.47;;;11.13;;
12970;SDS011;6550;48.650;8.774;2024-01-11T00:22:46;17.17;;;12.07;;
12970;SDS011;6550;48.650;8.774;2024-01-11T00:25:13;16.03;;;11.80;;
12970;SDS011;6550;48.650;8.774;2024-01-11T00:27:40;14.90;;;11.70;;
12970;SDS011;6550;48.650;8.774;2024-01-11T00:30:09;20.87;;;12.20;;
12970;SDS011;6550;48.650;8.774;2024-01-11T00:32:36;14.10;;;10.57;;
12970;SDS011;6550;48.650;8.774;2024-01-11T00:35:03;15.53;;;11.10;;
12970;SDS011;6550;48.650;8.774;2024-01-11T00:37:30;14.00;;;10.53;;
12970;SDS011;6550;48.650;8.774;2024-01-11T00:39:59;13.87;;;9.93;;
12970;SDS011;6550;48.650;8.774;2024-01-11T00:42:28;18.10;;;11.47;;
12970;SDS011;6550;48.650;8.774;2024-01-11T00:44:55;14.03;;;11.20;;
12970;SDS011;6550;48.650;8.774;2024-01-11T00:47:22;15.87;;;11.50;;
12970;SDS011;6550;48.650;8.774;2024-01-11T00:49:49;16.13;;;10.53;;
12970;SDS011;6550;48.650;8.774;2024-01-11T00:52:18;15.13;;;10.43;;
12970;SDS011;6550;48.650;8.774;2024-01-11T00:54:45;11.00;;;9.13;;
12970;SDS011;6550;48.650;8.774;2024-01-11T00:57:12;12.30;;;9.50;;
12970;SDS011;6550;48.650;8.774;2024-01-11T00:59:39;12.77;;;9.90;;
12970;SDS011;6550;48.650;8.774;2024-01-11T01:02:07;11.70;;;9.50;;
12970;SDS011;6550;48.650;8.774;2024-01-11T01:04:39;13.23;;;10.43;;
12970;SDS011;6550;48.650;8.774;2024-01-11T01:07:06;12.10;;;9.90;;
12970;SDS011;6550;48.650;8.774;2024-01-11T01:09:35;12.47;;;9.67;;
12970;SDS011;6550;48.650;8.774;2024-01-11T01:12:05;12.80;;;9.93;;
12970;SDS011;6550;48.650;8.774;2024-01-11T01:14:34;15.67;;;11.67;;
12970;SDS011;6550;48.650;8.774;2024-01-11T01:17:03;13.70;;;10.13;;
12970;SDS011;6550;48.650;8.774;2024-01-11T01:19:37;11.80;;;9.83;;
12970;SDS011;6550;48.650;8.774;2024-01-11T01:22:04;16.57;;;11.00;;
12970;SDS011;6550;48.650;8.774;2024-01-11T01:24:31;13.55;;;11.00;;
12970;SDS011;6550;48.650;8.774;2024-01-11T01:26:58;12.97;;;9.97;;
12970;SDS011;6550;48.650;8.774;2024-01-11T01:29:27;12.60;;;9.43;;
12970;SDS011;6550;48.650;8.774;2024-01-11T01:31:54;11.13;;;9.20;;
12970;SDS011;6550;48.650;8.774;2024-01-11T01:34:28;14.80;;;9.83;;
12970;SDS011;6550;48.650;8.774;2024-01-11T01:36:55;19.77;;;10.27;;
12970;SDS011;6550;48.650;8.774;2024-01-11T01:39:22;18.60;;;10.63;;
12970;SDS011;6550;48.650;8.774;2024-01-11T01:41:51;13.60;;;9.37;;
12970;SDS011;6550;48.650;8.774;2024-01-11T01:44:18;11.73;;;9.10;;
12970;SDS011;6550;48.650;8.774;2024-01-11T01:46:47;13.97;;;10.90;;
12970;SDS011;6550;48.650;8.774;2024-01-11T01:49:15;19.90;;;11.53;;
12970;SDS011;6550;48.650;8.774;2024-01-11T01:51:44;15.75;;;12.25;;
12970;SDS011;6550;48.650;8.774;2024-01-11T01:54:12;17.03;;;10.70;;
12970;SDS011;6550;48.650;8.774;2024-01-11T01:56:41;13.50;;;10.57;;
12970;SDS011;6550;48.650;8.774;2024-01-11T01:59:10;17.37;;;10.87;;
12970;SDS011;6550;48.650;8.774;2024-01-11T02:01:41;15.20;;;10.80;;
12970;SDS011;6550;48.650;8.774;2024-01-11T02:04:08;15.63;;;10.97;;
12970;SDS011;6550;48.650;8.774;2024-01-11T02:06:35;13.83;;;10.70;;
12970;SDS011;6550;48.650;8.774;2024-01-11T02:09:03;14.07;;;11.20;;
12970;SDS011;6550;48.650;8.774;2024-01-11T02:11:34;16.10;;;11.67;;
12970;SDS011;6550;48.650;8.774;2024-01-11T02:14:01;13.93;;;10.13;;
12970;SDS011;6550;48.650;8.774;2024-01-11T02:16:32;13.60;;;9.63;;
12970;SDS011;6550;48.650;8.774;2024-01-11T02:19:01;13.87;;;10.57;;
12970;SDS011;6550;48.650;8.774;2024-01-11T02:21:31;14.47;;;11.03;;
12970;SDS011;6550;48.650;8.774;2024-01-11T02:24:03;16.87;;;11.63;;
12970;SDS011;6550;48.650;8.774;2024-01-11T02:26:33;13.77;;;10.37;;
12970;SDS011;6550;48.650;8.774;2024-01-11T02:29:02;14.03;;;10.73;;
12970;SDS011;6550;48.650;8.774;2024-01-11T02:31:29;14.97;;;11.37;;
12970;SDS011;6550;48.650;8.774;2024-01-11T02:33:57;16.00;;;11.33;;
12970;SDS011;6550;48.650;8.774;2024-01-11T02:36:24;14.80;;;10.60;;
12970;SDS011;6550;48.650;8.774;2024-01-11T02:38:54;12.53;;;9.83;;
12970;SDS011;6550;48.650;8.774;2024-01-11T02:41:21;14.77;;;11.37;;
12970;SDS011;6550;48.650;8.774;2024-01-11T02:43:52;13.40;;;11.10;;
12970;SDS011;6550;48.650;8.774;2024-01-11T02:46:20;14.43;;;10.53;;
12970;SDS011;6550;48.650;8.774;2024-01-11T02:48:49;16.27;;;11.40;;
12970;SDS011;6550;48.650;8.774;2024-01-11T02:51:18;13.30;;;10.33;;
12970;SDS011;6550;48.650;8.774;2024-01-11T02:53:45;16.30;;;12.03;;
12970;SDS011;6550;48.650;8.774;2024-01-11T02:56:12;14.33;;;11.13;;
12970;SDS011;6550;48.650;8.774;2024-01-11T02:58:39;15.50;;;11.77;;
12970;SDS011;6550;48.650;8.774;2024-01-11T03:01:05;15.30;;;10.43;;
12970;SDS011;6550;48.650;8.774;2024-01-11T03:03:32;15.10;;;11.13;;
12970;SDS011;6550;48.650;8.774;2024-01-11T03:06:02;15.57;;;11.70;;
12970;SDS011;6550;48.650;8.774;2024-01-11T03:08:33;14.97;;;10.77;;
12970;SDS011;6550;48.650;8.774;2024-01-11T03:11:00;16.50;;;12.23;;
12970;SDS011;6550;48.650;8.774;2024-01-11T03:13:26;16.07;;;11.63;;
12970;SDS011;6550;48.650;8.774;2024-01-11T03:15:56;16.10;;;10.70;;
12970;SDS011;6550;48.650;8.774;2024-01-11T03:18:24;14.80;;;11.37;;
12970;SDS011;6550;48.650;8.774;2024-01-11T03:20:54;14.50;;;10.77;;
12970;SDS011;6550;48.650;8.774;2024-01-11T03:23:23;16.40;;;11.67;;
12970;SDS011;6550;48.650;8.774;2024-01-11T03:25:50;13.97;;;10.63;;
12970;SDS011;6550;48.650;8.774;2024-01-11T03:28:21;16.00;;;11.43;;
12970;SDS011;6550;48.650;8.774;2024-01-11T03:30:48;16.33;;;11.07;;
12970;SDS011;6550;48.650;8.774;2024-01-11T03:33:15;14.60;;;10.17;;
12970;SDS011;6550;48.650;8.774;2024-01-11T03:35:42;14.07;;;10.53;;
12970;SDS011;6550;48.650;8.774;2024-01-11T03:38:10;12.33;;;9.33;;
12970;SDS011;6550;48.650;8.774;2024-01-11T03:40:39;18.60;;;10.63;;
12970;SDS011;6550;48.650;8.774;2024-01-11T03:43:06;15.30;;;10.33;;
12970;SDS011;6550;48.650;8.774;2024-01-11T03:45:33;13.03;;;10.43;;
12970;SDS011;6550;48.650;8.774;2024-01-11T03:48:00;13.30;;;9.93;;
12970;SDS011;6550;48.650;8.774;2024-01-11T03:50:27;13.50;;;10.60;;
12970;SDS011;6550;48.650;8.774;2024-01-11T03:52:54;14.03;;;10.50;;
12970;SDS011;6550;48.650;8.774;2024-01-11T03:55:21;13.47;;;10.17;;
12970;SDS011;6550;48.650;8.774;2024-01-11T03:57:47;13.63;;;10.33;;
12970;SDS011;6550;48.650;8.774;2024-01-11T04:00:17;14.73;;;10.53;;
12970;SDS011;6550;48.650;8.774;2024-01-11T04:02:43;13.20;;;9.80;;
12970;SDS011;6550;48.650;8.774;2024-01-11T04:05:10;13.73;;;10.50;;
12970;SDS011;6550;48.650;8.774;2024-01-11T04:07:37;15.17;;;10.50;;
12970;SDS011;6550;48.650;8.774;2024-01-11T04:10:07;12.43;;;9.67;;
12970;SDS011;6550;48.650;8.774;2024-01-11T04:12:35;14.90;;;10.17;;
12970;SDS011;6550;48.650;8.774;2024-01-11T04:15:05;16.08;;;11.50;;
12970;SDS011;6550;48.650;8.774;2024-01-11T04:17:32;15.63;;;10.27;;
12970;SDS011;6550;48.650;8.774;2024-01-11T04:19:59;15.13;;;10.10;;
12970;SDS011;6550;48.650;8.774;2024-01-11T04:22:27;12.73;;;10.07;;
12970;SDS011;6550;48.650;8.774;2024-01-11T04:24:57;13.67;;;10.60;;
12970;SDS011;6550;48.650;8.774;2024-01-11T04:27:25;13.83;;;10.57;;
12970;SDS011;6550;48.650;8.774;2024-01-11T04:29:56;13.77;;;10.87;;
12970;SDS011;6550;48.650;8.774;2024-01-11T04:32:23;13.30;;;10.83;;
12970;SDS011;6550;48.650;8.774;2024-01-11T04:34:50;15.23;;;10.87;;
12970;SDS011;6550;48.650;8.774;2024-01-11T04:37:17;15.53;;;10.77;;
12970;SDS011;6550;48.650;8.774;2024-01-11T04:39:45;14.60;;;10.83;;
12970;SDS011;6550;48.650;8.774;2024-01-11T04:42:14;15.02;;;11.80;;
12970;SDS011;6550;48.650;8.774;2024-01-11T04:44:41;13.67;;;10.53;;
12970;SDS011;6550;48.650;8.774;2024-01-11T04:47:07;15.03;;;10.87;;
12970;SDS011;6550;48.650;8.774;2024-01-11T04:49:34;13.90;;;10.17;;
12970;SDS011;6550;48.650;8.774;2024-01-11T04:52:01;14.23;;;10.90;;
12970;SDS011;6550;48.650;8.774;2024-01-11T04:54:28;15.13;;;10.87;;
12970;SDS011;6550;48.650;8.774;2024-01-11T04:56:57;12.80;;;10.30;;
12970;SDS011;6550;48.650;8.774;2024-01-11T04:59:24;15.23;;;10.40;;
12970;SDS011;6550;48.650;8.774;2024-01-11T05:01:53;13.30;;;9.80;;
12970;SDS011;6550;48.650;8.774;2024-01-11T05:04:20;13.00;;;10.00;;
12970;SDS011;6550;48.650;8.774;2024-01-11T05:06:50;14.07;;;8.67;;
12970;SDS011;6550;48.650;8.774;2024-01-11T05:09:18;12.83;;;9.43;;
12970;SDS011;6550;48.650;8.774;2024-01-11T05:11:44;16.30;;;11.03;;
12970;SDS011;6550;48.650;8.774;2024-01-11T05:14:11;15.03;;;10.63;;
12970;SDS011;6550;48.650;8.774;2024-01-11T05:16:38;14.00;;;10.57;;
12970;SDS011;6550;48.650;8.774;2024-01-11T05:19:07;24.17;;;11.70;;
12970;SDS011;6550;48.650;8.774;2024-01-11T05:21:34;29.93;;;11.63;;
12970;SDS011;6550;48.650;8.774;2024-01-11T05:24:03;18.83;;;11.10;;
12970;SDS011;6550;48.650;8.774;2024-01-11T05:26:37;23.10;;;11.27;;
12970;SDS011;6550;48.650;8.774;2024-01-11T05:29:04;17.17;;;11.50;;
12970;SDS011;6550;48.650;8.774;2024-01-11T05:31:31;19.70;;;12.30;;
12970;SDS011;6550;48.650;8.774;2024-01-11T05:34:00;16.87;;;10.77;;
12970;SDS011;6550;48.650;8.774;2024-01-11T05:36:30;18.00;;;12.07;;
12970;SDS011;6550;48.650;8.774;2024-01-11T05:39:02;23.20;;;12.00;;
12970;SDS011;6550;48.650;8.774;2024-01-11T05:41:29;20.58;;;13.73;;
12970;SDS011;6550;48.650;8.774;2024-01-11T05:43:56;23.40;;;13.40;;
12970;SDS011;6550;48.650;8.774;2024-01-11T05:46:22;19.17;;;12.30;;
12970;SDS011;6550;48.650;8.774;2024-01-11T05:48:49;17.40;;;12.73;;
12970;SDS011;6550;48.650;8.774;2024-01-11T05:51:19;16.97;;;11.77;;
12970;SDS011;6550;48.650;8.774;2024-01-11T05:53:50;16.80;;;11.63;;
12970;SDS011;6550;48.650;8.774;2024-01-11T05:56:19;20.50;;;12.47;;
12970;SDS011;6550;48.650;8.774;2024-01-11T05:58:47;15.10;;;11.23;;
12970;SDS011;6550;48.650;8.774;2024-01-11T06:01:13;17.20;;;11.67;;
12970;SDS011;6550;48.650;8.774;2024-01-11T06:03:42;19.53;;;11.43;;
12970;SDS011;6550;48.650;8.774;2024-01-11T06:06:09;19.77;;;12.47;;
12970;SDS011;6550;48.650;8.774;2024-01-11T06:08:36;18.70;;;11.70;;
12970;SDS011;6550;48.650;8.774;2024-01-11T06:11:06;16.23;;;10.93;;
12970;SDS011;6550;48.650;8.774;2024-01-11T06:13:34;21.57;;;10.60;;
12970;SDS011;6550;48.650;8.774;2024-01-11T06:16:01;17.53;;;9.67;;
12970;SDS011;6550;48.650;8.774;2024-01-11T06:18:27;20.50;;;10.33;;
12970;SDS011;6550;48.650;8.774;2024-01-11T06:20:59;19.60;;;11.97;;
12970;SDS011;6550;48.650;8.774;2024-01-11T06:23:28;24.07;;;12.10;;
12970;SDS011;6550;48.650;8.774;2024-01-11T06:25:55;16.50;;;10.53;;
12970;SDS011;6550;48.650;8.774;2024-01-11T06:28:22;18.67;;;11.27;;
12970;SDS011;6550;48.650;8.774;2024-01-11T06:30:48;19.73;;;11.73;;
12970;SDS011;6550;48.650;8.774;2024-01-11T06:33:18;15.03;;;11.47;;
12970;SDS011;6550;48.650;8.774;2024-01-11T06:35:46;16.27;;;10.70;;
12970;SDS011;6550;48.650;8.774;2024-01-11T06:38:13;21.17;;;11.60;;
12970;SDS011;6550;48.650;8.774;2024-01-11T06:40:42;14.17;;;10.70;;
12970;SDS011;6550;48.650;8.774;2024-01-11T06:43:09;23.13;;;11.93;;
12970;SDS011;6550;48.650;8.774;2024-01-11T06:45:39;15.23;;;11.33;;
12970;SDS011;6550;48.650;8.774;2024-01-11T06:48:05;17.57;;;10.43;;
12970;SDS011;6550;48.650;8.774;2024-01-11T06:50:35;26.90;;;12.33;;
12970;SDS011;6550;48.650;8.774;2024-01-11T06:53:02;15.23;;;11.10;;
12970;SDS011;6550;48.650;8.774;2024-01-11T06:55:31;19.30;;;10.83;;
12970;SDS011;6550;48.650;8.774;2024-01-11T06:58:00;22.83;;;12.07;;
12970;SDS011;6550;48.650;8.774;2024-01-11T07:00:28;17.47;;;11.33;;
12970;SDS011;6550;48.650;8.774;2024-01-11T07:02:55;19.33;;;11.80;;
12970;SDS011;6550;48.650;8.774;2024-01-11T07:05:22;21.77;;;13.00;;
12970;SDS011;6550;48.650;8.774;2024-01-11T07:07:49;14.23;;;10.13;;
12970;SDS011;6550;48.650;8.774;2024-01-11T07:10:15;16.40;;;11.00;;
12970;SDS011;6550;48.650;8.774;2024-01-11T07:12:45;20.00;;;11.60;;
12970;SDS011;6550;48.650;8.774;2024-01-11T07:15:14;20.20;;;10.80;;
12970;SDS011;6550;48.650;8.774;2024-01-11T07:17:43;18.83;;;11.40;;
12970;SDS011;6550;48.650;8.774;2024-01-11T07:20:10;16.03;;;12.00;;
12970;SDS011;6550;48.650;8.774;2024-01-11T07:22:40;18.03;;;10.80;;
12970;SDS011;6550;48.650;8.774;2024-01-11T07:25:10;17.57;;;10.60;;
12970;SDS011;6550;48.650;8.774;2024-01-11T07:27:40;17.50;;;10.43;;
12970;SDS011;6550;48.650;8.774;2024-01-11T07:30:07;14.00;;;11.30;;
12970;SDS011;6550;48.650;8.774;2024-01-11T07:32:36;18.47;;;12.63;;
12970;SDS011;6550;48.650;8.774;2024-01-11T07:35:08;16.57;;;12.27;;
12970;SDS011;6550;48.650;8.774;2024-01-11T07:37:40;17.70;;;12.03;;
12970;SDS011;6550;48.650;8.774;2024-01-11T07:40:07;26.27;;;13.17;;
12970;SDS011;6550;48.650;8.774;2024-01-11T07:42:37;18.13;;;12.23;;
12970;SDS011;6550;48.650;8.774;2024-01-11T07:45:07;20.70;;;11.67;;
12970;SDS011;6550;48.650;8.774;2024-01-11T07:47:39;16.40;;;12.00;;
12970;SDS011;6550;48.650;8.774;2024-01-11T07:50:07;21.27;;;13.63;;
12970;SDS011;6550;48.650;8.774;2024-01-11T07:52:38;20.30;;;12.67;;
12970;SDS011;6550;48.650;8.774;2024-01-11T07:55:11;19.97;;;11.73;;
12970;SDS011;6550;48.650;8.774;2024-01-11T07:57:40;20.40;;;11.07;;
12970;SDS011;6550;48.650;8.774;2024-01-11T08:00:09;27.57;;;10.83;;
12970;SDS011;6550;48.650;8.774;2024-01-11T08:02:39;17.87;;;12.33;;
12970;SDS011;6550;48.650;8.774;2024-01-11T08:05:11;19.17;;;13.03;;
12970;SDS011;6550;48.650;8.774;2024-01-11T08:07:38;20.93;;;13.57;;
12970;SDS011;6550;48.650;8.774;2024-01-11T08:10:07;23.60;;;15.40;;
12970;SDS011;6550;48.650;8.774;2024-01-11T08:12:40;27.10;;;14.07;;
12970;SDS011;6550;48.650;8.774;2024-01-11T08:15:11;21.50;;;13.53;;
12970;SDS011;6550;48.650;8.774;2024-01-11T08:17:39;21.53;;;14.33;;
12970;SDS011;6550;48.650;8.774;2024-01-11T08:20:14;21.60;;;15.37;;
12970;SDS011;6550;48.650;8.774;2024-01-11T08:22:44;20.93;;;14.33;;
12970;SDS011;6550;48.650;8.774;2024-01-11T08:25:13;25.10;;;16.73;;
12970;SDS011;6550;48.650;8.774;2024-01-11T08:27:43;23.20;;;15.47;;
12970;SDS011;6550;48.650;8.774;2024-01-11T08:30:09;24.47;;;17.10;;
12970;SDS011;6550;48.650;8.774;2024-01-11T08:32:41;29.00;;;19.45;;
12970;SDS011;6550;48.650;8.774;2024-01-11T08:35:09;37.60;;;20.73;;
12970;SDS011;6550;48.650;8.774;2024-01-11T08:37:36;38.90;;;21.20;;
12970;SDS011;6550;48.650;8.774;2024-01-11T08:40:06;35.07;;;21.60;;
12970;SDS011;6550;48.650;8.774;2024-01-11T08:42:35;34.07;;;21.33;;
12970;SDS011;6550;48.650;8.774;2024-01-11T08:45:06;37.13;;;22.77;;
12970;SDS011;6550;48.650;8.774;2024-01-11T08:47:33;32.53;;;21.50;;
12970;SDS011;6550;48.650;8.774;2024-01-11T08:50:01;33.60;;;20.60;;
12970;SDS011;6550;48.650;8.774;2024-01-11T08:52:32;36.00;;;21.67;;
12970;SDS011;6550;48.650;8.774;2024-01-11T08:55:01;28.13;;;17.80;;
12970;SDS011;6550;48.650;8.774;2024-01-11T08:57:31;27.37;;;18.90;;
12970;SDS011;6550;48.650;8.774;2024-01-11T09:00:02;25.30;;;18.63;;
12970;SDS011;6550;48.650;8.774;2024-01-11T09:02:30;27.00;;;18.53;;
12970;SDS011;6550;48.650;8.774;2024-01-11T09:04:59;29.50;;;20.27;;
12970;SDS011;6550;48.650;8.774;2024-01-11T09:07:26;29.60;;;20.87;;
12970;SDS011;6550;48.650;8.774;2024-01-11T09:09:53;31.50;;;21.30;;
12970;SDS011;6550;48.650;8.774;2024-01-11T09:12:23;30.37;;;20.83;;
12970;SDS011;6550;48.650;8.774;2024-01-11T09:14:49;29.70;;;21.60;;
12970;SDS011;6550;48.650;8.774;2024-01-11T09:17:16;25.53;;;18.57;;
12970;SDS011;6550;48.650;8.774;2024-01-11T09:19:43;26.83;;;19.77;;
12970;SDS011;6550;48.650;8.774;2024-01-11T09:22:14;28.57;;;20.60;;
12970;SDS011;6550;48.650;8.774;2024-01-11T09:24:41;24.80;;;18.60;;
12970;SDS011;6550;48.650;8.774;2024-01-11T09:27:10;24.07;;;19.50;;
12970;SDS011;6550;48.650;8.774;2024-01-11T09:29:43;26.03;;;17.90;;
12970;SDS011;6550;48.650;8.774;2024-01-11T09:32:13;40.13;;;20.97;;
12970;SDS011;6550;48.650;8.774;2024-01-11T09:34:40;27.73;;;19.73;;
12970;SDS011;6550;48.650;8.774;2024-01-11T09:37:07;27.07;;;18.87;;
12970;SDS011;6550;48.650;8.774;2024-01-11T09:39:34;25.20;;;18.27;;
12970;SDS011;6550;48.650;8.774;2024-01-11T09:42:06;28.73;;;18.97;;
12970;SDS011;6550;48.650;8.774;2024-01-11T09:44:36;25.93;;;19.03;;
12970;SDS011;6550;48.650;8.774;2024-01-11T09:47:10;25.00;;;19.47;;
12970;SDS011;6550;48.650;8.774;2024-01-11T09:49:42;28.27;;;19.97;;
12970;SDS011;6550;48.650;8.774;2024-01-11T09:52:11;25.57;;;18.23;;
12970;SDS011;6550;48.650;8.774;2024-01-11T09:54:41;26.40;;;19.67;;
12970;SDS011;6550;48.650;8.774;2024-01-11T09:57:10;26.27;;;19.20;;
12970;SDS011;6550;48.650;8.774;2024-01-11T09:59:41;30.80;;;21.50;;
12970;SDS011;6550;48.650;8.774;2024-01-11T10:02:09;27.53;;;21.80;;
12970;SDS011;6550;48.650;8.774;2024-01-11T10:04:40;25.13;;;20.03;;
12970;SDS011;6550;48.650;8.774;2024-01-11T10:07:08;27.80;;;19.03;;
12970;SDS011;6550;48.650;8.774;2024-01-11T10:09:36;24.87;;;18.90;;
12970;SDS011;6550;48.650;8.774;2024-01-11T10:12:03;25.87;;;19.33;;
12970;SDS011;6550;48.650;8.774;2024-01-11T10:14:31;25.40;;;19.27;;
12970;SDS011;6550;48.650;8.774;2024-01-11T10:17:00;28.77;;;20.03;;
12970;SDS011;6550;48.650;8.774;2024-01-11T10:19:27;24.67;;;19.03;;
12970;SDS011;6550;48.650;8.774;2024-01-11T10:21:55;25.23;;;20.27;;
12970;SDS011;6550;48.650;8.774;2024-01-11T10:24:27;24.40;;;18.97;;
12970;SDS011;6550;48.650;8.774;2024-01-11T10:27:00;22.53;;;17.67;;
12970;SDS011;6550;48.650;8.774;2024-01-11T10:29:30;25.33;;;18.73;;
12970;SDS011;6550;48.650;8.774;2024-01-11T10:31:58;24.20;;;19.00;;
12970;SDS011;6550;48.650;8.774;2024-01-11T10:34:24;23.73;;;18.20;;
12970;SDS011;6550;48.650;8.774;2024-01-11T10:36:52;23.10;;;18.07;;
12970;SDS011;6550;48.650;8.774;2024-01-11T10:39:19;23.97;;;18.23;;
12970;SDS011;6550;48.650;8.774;2024-01-11T10:42:04;25.87;;;19.80;;
12970;SDS011;6550;48.650;8.774;2024-01-11T10:44:33;26.83;;;18.10;;
12970;SDS011;6550;48.650;8.774;2024-01-11T10:47:06;24.40;;;19.43;;
12970;SDS011;6550;48.650;8.774;2024-01-11T10:49:38;27.97;;;20.37;;
12970;SDS011;6550;48.650;8.774;2024-01-11T10:52:07;25.70;;;18.70;;
12970;SDS011;6550;48.650;8.774;2024-01-11T10:54:34;24.70;;;19.00;;
12970;SDS011;6550;48.650;8.774;2024-01-11T10:57:01;24.73;;;18.37;;
12970;SDS011;6550;48.650;8.774;2024-01-11T10:59:31;27.87;;;18.80;;
12970;SDS011;6550;48.650;8.774;2024-01-11T11:02:03;22.10;;;17.63;;
12970;SDS011;6550;48.650;8.774;2024-01-11T11:04:32;25.10;;;17.77;;
12970;SDS011;6550;48.650;8.774;2024-01-11T11:07:02;23.40;;;18.57;;
12970;SDS011;6550;48.650;8.774;2024-01-11T11:09:29;24.07;;;17.90;;
12970;SDS011;6550;48.650;8.774;2024-01-11T11:12:01;25.52;;;21.02;;
12970;SDS011;6550;48.650;8.774;2024-01-11T11:14:30;23.70;;;18.93;;
12970;SDS011;6550;48.650;8.774;2024-01-11T11:17:03;22.23;;;17.67;;
12970;SDS011;6550;48.650;8.774;2024-01-11T11:19:31;25.10;;;18.33;;
12970;SDS011;6550;48.650;8.774;2024-01-11T11:21:58;21.97;;;16.77;;
12970;SDS011;6550;48.650;8.774;2024-01-11T11:24:25;24.33;;;18.47;;
12970;SDS011;6550;48.650;8.774;2024-01-11T11:26:52;23.17;;;16.77;;
12970;SDS011;6550;48.650;8.774;2024-01-11T11:29:19;18.47;;;14.30;;
12970;SDS011;6550;48.650;8.774;2024-01-11T11:31:48;15.43;;;10.60;;
12970;SDS011;6550;48.650;8.774;2024-01-11T11:34:20;16.80;;;12.03;;
12970;SDS011;6550;48.650;8.774;2024-01-11T11:37:05;16.77;;;12.83;;
12970;SDS011;6550;48.650;8.774;2024-01-11T11:39:35;16.93;;;12.77;;
12970;SDS011;6550;48.650;8.774;2024-01-11T11:42:03;17.23;;;13.10;;
12970;SDS011;6550;48.650;8.774;2024-01-11T11:44:33;17.27;;;12.63;;
12970;SDS011;6550;48.650;8.774;2024-01-11T11:47:17;17.77;;;13.43;;
12970;SDS011;6550;48.650;8.774;2024-01-11T11:52:40;18.20;;;13.40;;
12970;SDS011;6550;48.650;8.774;2024-01-11T11:55:12;17.30;;;13.50;;
12970;SDS011;6550;48.650;8.774;2024-01-11T11:57:40;15.80;;;12.37;;
12970;SDS011;6550;48.650;8.774;2024-01-11T12:00:13;17.50;;;12.37;;
12970;SDS011;6550;48.650;8.774;2024-01-11T12:02:42;18.60;;;12.67;;
12970;SDS011;6550;48.650;8.774;2024-01-11T12:05:12;15.33;;;11.90;;
12970;SDS011;6550;48.650;8.774;2024-01-11T12:07:39;14.93;;;11.80;;
12970;SDS011;6550;48.650;8.774;2024-01-11T12:10:06;15.53;;;12.37;;
12970;SDS011;6550;48.650;8.774;2024-01-11T12:12:36;17.03;;;12.87;;
12970;SDS011;6550;48.650;8.774;2024-01-11T12:15:08;20.63;;;15.53;;
12970;SDS011;6550;48.650;8.774;2024-01-11T12:17:37;20.23;;;15.40;;
12970;SDS011;6550;48.650;8.774;2024-01-11T12:20:09;19.27;;;15.10;;
12970;SDS011;6550;48.650;8.774;2024-01-11T12:22:39;19.27;;;14.87;;
12970;SDS011;6550;48.650;8.774;2024-01-11T12:25:08;16.93;;;13.73;;
12970;SDS011;6550;48.650;8.774;2024-01-11T12:27:38;17.43;;;14.50;;
12970;SDS011;6550;48.650;8.774;2024-01-11T12:30:06;20.90;;;15.23;;
12970;SDS011;6550;48.650;8.774;2024-01-11T12:32:40;18.67;;;14.77;;
12970;SDS011;6550;48.650;8.774;2024-01-11T12:35:08;19.03;;;14.60;;
12970;SDS011;6550;48.650;8.774;2024-01-11T12:37:37;19.33;;;14.50;;
12970;SDS011;6550;48.650;8.774;2024-01-11T12:40:04;21.20;;;14.97;;
12970;SDS011;6550;48.650;8.774;2024-01-11T12:42:40;17.20;;;13.40;;
12970;SDS011;6550;48.650;8.774;2024-01-11T12:45:10;19.30;;;14.93;;
12970;SDS011;6550;48.650;8.774;2024-01-11T12:47:36;21.77;;;16.17;;
12970;SDS011;6550;48.650;8.774;2024-01-11T12:50:04;21.37;;;16.43;;
12970;SDS011;6550;48.650;8.774;2024-01-11T12:52:36;20.83;;;16.27;;
12970;SDS011;6550;48.650;8.774;2024-01-11T12:55:06;19.13;;;14.93;;
12970;SDS011;6550;48.650;8.774;2024-01-11T12:57:37;20.37;;;16.03;;
12970;SDS011;6550;48.650;8.774;2024-01-11T13:00:10;20.07;;;15.27;;
12970;SDS011;6550;48.650;8.774;2024-01-11T13:02:37;19.17;;;14.63;;
12970;SDS011;6550;48.650;8.774;2024-01-11T13:05:04;19.00;;;14.47;;
12970;SDS011;6550;48.650;8.774;2024-01-11T13:07:36;22.23;;;16.07;;
12970;SDS011;6550;48.650;8.774;2024-01-11T13:10:03;21.70;;;16.20;;
12970;SDS011;6550;48.650;8.774;2024-01-11T13:12:31;18.97;;;14.43;;
12970;SDS011;6550;48.650;8.774;2024-01-11T13:14:57;19.83;;;14.90;;
12970;SDS011;6550;48.650;8.774;2024-01-11T13:17:24;19.17;;;13.67;;
12970;SDS011;6550;48.650;8.774;2024-01-11T13:19:53;17.97;;;13.77;;
12970;SDS011;6550;48.650;8.774;2024-01-11T13:22:22;17.77;;;14.50;;
12970;SDS011;6550;48.650;8.774;2024-01-11T13:24:53;18.10;;;12.80;;
12970;SDS011;6550;48.650;8.774;2024-01-11T13:27:20;20.03;;;14.00;;
12970;SDS011;6550;48.650;8.774;2024-01-11T13:29:49;18.80;;;13.57;;
12970;SDS011;6550;48.650;8.774;2024-01-11T13:32:16;17.60;;;13.27;;
12970;SDS011;6550;48.650;8.774;2024-01-11T13:34:44;19.80;;;14.77;;
12970;SDS011;6550;48.650;8.774;2024-01-11T13:37:13;18.93;;;15.00;;
12970;SDS011;6550;48.650;8.774;2024-01-11T13:39:42;18.80;;;14.97;;
12970;SDS011;6550;48.650;8.774;2024-01-11T13:42:11;17.00;;;13.70;;
12970;SDS011;6550;48.650;8.774;2024-01-11T13:44:38;17.70;;;13.10;;
12970;SDS011;6550;48.650;8.774;2024-01-11T13:47:05;19.60;;;13.47;;
12970;SDS011;6550;48.650;8.774;2024-01-11T13:49:32;18.73;;;13.57;;
12970;SDS011;6550;48.650;8.774;2024-01-11T13:52:00;18.50;;;14.87;;
12970;SDS011;6550;48.650;8.774;2024-01-11T13:54:30;19.83;;;14.00;;
12970;SDS011;6550;48.650;8.774;2024-01-11T13:56:57;19.73;;;14.53;;
12970;SDS011;6550;48.650;8.774;2024-01-11T13:59:29;19.10;;;14.97;;
12970;SDS011;6550;48.650;8.774;2024-01-11T14:01:55;20.37;;;15.87;;
12970;SDS011;6550;48.650;8.774;2024-01-11T14:04:25;22.00;;;15.90;;
12970;SDS011;6550;48.650;8.774;2024-01-11T14:06:54;19.70;;;15.13;;
12970;SDS011;6550;48.650;8.774;2024-01-11T14:09:21;21.33;;;16.10;;
12970;SDS011;6550;48.650;8.774;2024-01-11T14:11:48;20.20;;;14.87;;
12970;SDS011;6550;48.650;8.774;2024-01-11T14:14:16;21.93;;;16.00;;
12970;SDS011;6550;48.650;8.774;2024-01-11T14:16:45;19.90;;;15.57;;
12970;SDS011;6550;48.650;8.774;2024-01-11T14:19:14;21.85;;;16.50;;
12970;SDS011;6550;48.650;8.774;2024-01-11T14:21:41;18.50;;;14.47;;
12970;SDS011;6550;48.650;8.774;2024-01-11T14:24:08;18.73;;;14.27;;
12970;SDS011;6550;48.650;8.774;2024-01-11T14:26:36;19.90;;;14.07;;
12970;SDS011;6550;48.650;8.774;2024-01-11T14:29:04;20.77;;;15.30;;
12970;SDS011;6550;48.650;8.774;2024-01-11T14:31:31;19.73;;;15.30;;
12970;SDS011;6550;48.650;8.774;2024-01-11T14:34:01;21.20;;;15.87;;
12970;SDS011;6550;48.650;8.774;2024-01-11T14:36:33;22.70;;;15.70;;
12970;SDS011;6550;48.650;8.774;2024-01-11T14:39:02;18.93;;;14.63;;
12970;SDS011;6550;48.650;8.774;2024-01-11T14:41:34;19.50;;;14.03;;
12970;SDS011;6550;48.650;8.774;2024-01-11T14:44:03;22.03;;;13.73;;
12970;SDS011;6550;48.650;8.774;2024-01-11T14:46:30;18.90;;;14.23;;